»·PEaware :: N550JG KBUR-KLAS

N550JG :: KBUR-KLAS

FLIGHT INFORMATION

Flight Status: Arrived
Operator: Privately registered:
United States
More flights under this callsign
Pilot: Henry T. (21033)
Aircraft: CIRRUS SR-20
(SR20)
More flights by this aircraft type
Origin: KBUR Bob Hope-Burbank
United States
Destination: KLAS McCarran Intl
United States
More flights between these airports :: More routes between these airports
Route: VNY3 DAG CRESO4
File this flight plan on PilotEdge
Remarks: Request Time Acceration on legs Ether - DAG - DANBY
Altitude:
(Current/Filed)
11,000ft
Speed:
(Current/Filed)
150kts
Departed: 18-May-20 09:13 AM
Arrived: 18-May-20 10:16 AM
Distance/Time
Traveled:
194nm/1:03
Distance/Time
To Go:
Arrived

Flight Plot

Page will automatically refresh every two minutes.


Map Options




Map Legend


Flown Route
Filed Route
Departure Airport
Arrival Airport
Navaid (VOR, NDB)
Fix

Horizontal Profiles

Position Reports

Time Latitude Longitude Heading Altitude Ground
Speed
18-May-20 09:02 34.196338 -118.367565 358 722ft 0kts
18-May-20 09:03 34.196338 -118.367565 358 722ft 0kts
18-May-20 09:04 34.196338 -118.367565 358 722ft 0kts
18-May-20 09:05 34.196338 -118.367565 358 722ft 0kts
18-May-20 09:06 34.196338 -118.367565 358 722ft 0kts
18-May-20 09:07 34.196338 -118.367565 358 722ft 0kts
18-May-20 09:08 34.196338 -118.367565 358 722ft 0kts
18-May-20 09:09 34.196912 -118.367133 270 723ft 11kts
18-May-20 09:10 34.197099 -118.368889 322 725ft 0kts
18-May-20 09:11 34.197903 -118.368880 76 726ft 8kts
18-May-20 09:12 34.195149 -118.347907 158 1348ft 79kts
18-May-20 09:13 34.177770 -118.369716 224 2470ft 83kts
18-May-20 09:14 34.160445 -118.399742 224 3238ft 113kts
18-May-20 09:15 34.136592 -118.437112 224 3853ft 124kts
18-May-20 09:16 34.137869 -118.460952 315 4195ft 141kts
18-May-20 09:17 34.155691 -118.470495 341 4571ft 136kts
18-May-20 09:18 34.172331 -118.476872 341 4922ft 132kts
18-May-20 09:19 34.185980 -118.482223 341 5337ft 119kts
18-May-20 09:20 34.200485 -118.487935 342 5823ft 105kts
18-May-20 09:21 34.213929 -118.493271 342 6240ft 96kts
18-May-20 09:22 34.226905 -118.497697 341 6763ft 80kts
18-May-20 09:23 34.239546 -118.493711 36 7099ft 100kts
18-May-20 09:24 34.248726 -118.479799 33 7430ft 101kts
18-May-20 09:25 34.259671 -118.466470 28 7771ft 101kts
18-May-20 09:26 34.271286 -118.453436 51 8083ft 104kts
18-May-20 09:27 34.284029 -118.439585 49 8402ft 108kts
18-May-20 09:28 34.298112 -118.424416 48 8744ft 111kts
18-May-20 09:29 34.365526 -118.352054 42 10128ft 119kts
18-May-20 09:30 34.443055 -118.268447 38 11018ft 134kts
18-May-20 09:31 34.510941 -118.194880 38 10987ft 170kts
18-May-20 09:32 34.552674 -118.149592 38 10982ft 176kts
18-May-20 09:33 34.603915 -118.093911 38 10977ft 177kts
18-May-20 09:34 34.638702 -118.034316 97 10979ft 169kts
18-May-20 09:35 34.645899 -117.932920 87 10963ft 174kts
18-May-20 09:36 34.657024 -117.830616 87 10959ft 174kts
18-May-20 09:37 34.678812 -117.706980 75 10961ft 176kts
18-May-20 09:38 34.927313 -116.728773 80 10940ft 173kts
18-May-20 09:39 34.957449 -116.601115 78 10922ft 170kts
18-May-20 09:40 34.975872 -116.548306 62 10959ft 170kts
18-May-20 09:41 34.998956 -116.497657 66 10960ft 170kts
18-May-20 09:42 35.021515 -116.446829 66 10956ft 170kts
18-May-20 09:43 35.110546 -116.245693 67 11014ft 168kts
18-May-20 09:44 35.273031 -115.872868 65 10985ft 138kts
18-May-20 09:45 35.295092 -115.827856 51 10903ft 170kts
18-May-20 09:46 35.330740 -115.778915 52 9988ft 198kts
18-May-20 09:47 35.364265 -115.730839 53 9968ft 177kts
18-May-20 09:48 35.395569 -115.685709 53 9957ft 171kts
18-May-20 09:49 35.426222 -115.641522 53 9956ft 169kts
18-May-20 09:50 35.456211 -115.598228 53 9954ft 169kts
18-May-20 09:51 35.486471 -115.554517 53 9951ft 169kts
18-May-20 09:52 35.517094 -115.510775 50 9948ft 169kts
18-May-20 09:53 35.549202 -115.468126 51 9948ft 169kts
18-May-20 09:54 35.580809 -115.425694 51 9990ft 168kts
18-May-20 09:55 35.612532 -115.383032 51 9987ft 169kts
18-May-20 09:56 35.644465 -115.340040 51 10012ft 168kts
18-May-20 09:57 35.675505 -115.298228 51 10021ft 168kts
18-May-20 09:58 35.707075 -115.255597 51 10018ft 169kts
18-May-20 09:59 35.748452 -115.220687 22 9176ft 208kts
18-May-20 10:00 35.801568 -115.195326 20 8000ft 197kts
18-May-20 10:01 35.850473 -115.179277 10 7999ft 179kts
18-May-20 10:02 35.896565 -115.165901 10 7998ft 175kts
18-May-20 10:03 35.936133 -115.154499 10 7997ft 175kts
18-May-20 10:05 35.973841 -115.143723 10 7993ft 173kts
18-May-20 10:06 36.012107 -115.132902 11 7984ft 173kts
18-May-20 10:07 36.051513 -115.122143 10 7970ft 175kts
18-May-20 10:08 36.092352 -115.111546 11 7958ft 175kts
18-May-20 10:09 36.133463 -115.101399 11 7281ft 184kts
18-May-20 10:10 36.178977 -115.092141 346 5998ft 166kts
18-May-20 10:11 36.176987 -115.136908 214 4576ft 147kts
18-May-20 10:12 36.152910 -115.145264 172 4469ft 81kts
18-May-20 10:13 36.140196 -115.139649 156 3919ft 74kts
18-May-20 10:14 36.123253 -115.142773 197 2853ft 81kts
18-May-20 10:15 36.109577 -115.150838 199 2421ft 57kts
18-May-20 10:16 36.094824 -115.159141 204 2098ft 39kts
18-May-20 10:17 36.094137 -115.160725 295 2105ft 0kts
18-May-20 10:18 36.094180 -115.160836 294 2106ft 8kts
18-May-20 10:19 36.093475 -115.163024 222 2113ft 0kts

Navigation Log

Ident Type
Flight plan parsing failed, navigation log unavailable